createdAt,value
2023-04-17T00:01:00.793Z,4.72
2023-04-17T00:06:04.559Z,4.13
2023-04-17T00:11:09.137Z,2.17
2023-04-17T00:16:13.979Z,2.72
2023-04-17T00:21:18.254Z,3.22
2023-04-17T00:26:22.475Z,4.45
2023-04-17T00:31:26.184Z,3.22
2023-04-17T00:36:33.197Z,2.22
2023-04-17T00:41:36.690Z,1.27
2023-04-17T00:46:41.781Z,0.90
2023-04-17T00:51:46.589Z,0.60
2023-04-17T00:56:52.728Z,0.82
2023-04-17T01:01:56.485Z,0.65
2023-04-17T01:07:00.654Z,0.93
2023-04-17T01:12:21.556Z,0.45
2023-04-17T01:17:28.885Z,0.68
2023-04-17T01:22:32.897Z,0.73
2023-04-17T01:27:37.526Z,1.00
2023-04-17T01:32:42.511Z,0.75
2023-04-17T01:37:47.192Z,0.90
2023-04-17T01:42:50.911Z,1.65
2023-04-17T01:47:55.376Z,1.35
2023-04-17T01:52:59.146Z,1.65
2023-04-17T01:58:02.329Z,0.80
2023-04-17T02:03:06.458Z,1.02
2023-04-17T02:08:11.872Z,1.17
2023-04-17T02:13:15.982Z,1.10
2023-04-17T02:18:19.931Z,0.90
2023-04-17T02:23:23.378Z,1.10
2023-04-17T02:28:27.270Z,1.00
2023-04-17T02:33:31.178Z,0.88
2023-04-17T02:38:35.930Z,0.98
2023-04-17T02:43:39.908Z,1.60
2023-04-17T02:48:43.795Z,1.40
2023-04-17T02:53:47.238Z,1.25
2023-04-17T02:58:50.726Z,1.58
2023-04-17T03:03:54.267Z,1.73
2023-04-17T03:08:59.053Z,1.95
2023-04-17T03:14:03.584Z,2.65
2023-04-17T03:19:07.653Z,1.52
2023-04-17T03:24:13.143Z,1.83
2023-04-17T03:29:18.907Z,2.30
2023-04-17T03:34:23.620Z,1.60
2023-04-17T03:39:27.732Z,1.70
2023-04-17T03:44:32.370Z,1.60
2023-04-17T03:49:37.377Z,1.40
2023-04-17T03:54:42.930Z,1.63
2023-04-17T03:59:49.154Z,1.83
2023-04-17T04:04:54.186Z,2.08
2023-04-17T04:09:58.005Z,1.60
2023-04-17T04:15:02.709Z,1.05
2023-04-17T04:20:10.936Z,1.25
2023-04-17T04:25:14.128Z,1.00
2023-04-17T04:30:25.903Z,1.20
2023-04-17T04:35:38.599Z,0.70
2023-04-17T04:40:44.429Z,0.52
2023-04-17T04:45:48.770Z,0.70
2023-04-17T04:50:53.890Z,1.00
2023-04-17T04:55:57.565Z,0.70
2023-04-17T05:01:04.427Z,0.73
2023-04-17T05:06:16.231Z,0.70
2023-04-17T05:11:25.199Z,1.20
2023-04-17T05:16:29.149Z,1.02
2023-04-17T05:21:35.261Z,1.48
2023-04-17T05:26:39.576Z,1.20
2023-04-17T05:31:43.709Z,0.75
2023-04-17T05:37:00.718Z,0.68
2023-04-17T05:42:05.036Z,0.60
2023-04-17T05:47:08.414Z,0.50
2023-04-17T05:52:13.767Z,0.50
2023-04-17T05:57:20.674Z,0.70
2023-04-17T06:02:26.372Z,0.50
2023-04-17T06:07:31.619Z,0.60
2023-04-17T06:12:35.691Z,0.43
2023-04-17T06:17:43.504Z,0.30
2023-04-17T06:22:47.242Z,0.10
2023-04-17T06:27:52.911Z,0.28
2023-04-17T06:32:56.693Z,0.50
2023-04-17T06:38:00.928Z,0.57
2023-04-17T06:43:04.437Z,0.28
2023-04-17T06:48:08.250Z,0.20
2023-04-17T06:53:11.927Z,0.30
2023-04-17T06:58:15.811Z,0.47
2023-04-17T07:03:19.546Z,0.77
2023-04-17T07:08:23.538Z,0.47
2023-04-17T07:13:27.091Z,0.55
2023-04-17T07:18:30.699Z,0.60
2023-04-17T07:23:34.165Z,0.70
2023-04-17T07:28:38.751Z,0.68
2023-04-17T07:33:42.217Z,0.30
2023-04-17T07:38:45.375Z,0.38
2023-04-17T07:43:49.209Z,0.40
2023-04-17T07:48:53.569Z,0.70
2023-04-17T07:53:56.604Z,0.98
2023-04-17T07:59:00.217Z,0.55
2023-04-17T08:04:04.576Z,0.98
2023-04-17T08:09:08.931Z,1.10
2023-04-17T08:14:13.124Z,1.15
2023-04-17T08:19:16.891Z,1.10
2023-04-17T08:24:20.820Z,0.52
2023-04-17T08:29:25.050Z,0.93
2023-04-17T08:34:28.713Z,0.40
2023-04-17T08:39:32.712Z,0.38
2023-04-17T08:44:36.422Z,0.60
2023-04-17T08:49:44.088Z,0.50
2023-04-17T08:54:49.875Z,0.50
2023-04-17T08:59:55.383Z,0.40
2023-04-17T09:04:59.368Z,0.50
2023-04-17T09:10:03.224Z,0.40
2023-04-17T09:15:19.796Z,0.82
2023-04-17T09:20:23.003Z,0.90
2023-04-17T09:25:28.360Z,0.68
2023-04-17T09:30:37.688Z,0.43
2023-04-17T09:35:42.478Z,0.60
2023-04-17T09:40:46.121Z,0.60
2023-04-17T09:45:52.555Z,1.30
2023-04-17T09:56:02.061Z,0.73
2023-04-17T10:01:06.844Z,0.70
2023-04-17T10:06:11.080Z,0.63
2023-04-17T10:11:15.368Z,0.90
2023-04-17T10:16:19.147Z,0.85
2023-04-17T10:21:25.196Z,0.95
2023-04-17T10:26:29.479Z,0.82
2023-04-17T10:32:10.824Z,0.70
2023-04-17T10:37:17.978Z,0.70
2023-04-17T10:42:23.257Z,0.80
2023-04-17T10:47:34.515Z,0.57
2023-04-17T10:52:40.836Z,1.80
2023-04-17T11:03:04.311Z,0.70
2023-04-17T11:08:08.138Z,1.55
2023-04-17T11:13:11.690Z,1.73
2023-04-17T11:18:15.443Z,1.40
2023-04-17T11:23:19.428Z,0.80
2023-04-17T11:28:23.137Z,1.08
2023-04-17T11:33:26.291Z,1.67
2023-04-17T11:38:29.912Z,0.88
2023-04-17T11:43:37.196Z,0.80
2023-04-17T11:48:41.092Z,1.70
2023-04-17T11:53:51.811Z,2.40
2023-04-17T11:58:59.554Z,1.30
2023-04-17T12:04:03.798Z,1.00
2023-04-17T12:09:21.125Z,0.87
2023-04-17T12:14:26.515Z,0.80
2023-04-17T12:19:32.218Z,0.70
2023-04-17T12:24:36.597Z,0.40
2023-04-17T12:29:44.493Z,0.80
2023-04-17T12:34:48.960Z,0.63
2023-04-17T12:39:52.526Z,0.60
2023-04-17T12:44:56.302Z,0.70
2023-04-17T12:50:00.185Z,0.80
2023-04-17T12:55:06.112Z,0.82
2023-04-17T13:00:10.195Z,0.70
2023-04-17T13:05:13.217Z,0.60
2023-04-17T13:10:16.818Z,1.00
2023-04-17T13:15:20.030Z,1.00
2023-04-17T13:20:23.849Z,0.70
2023-04-17T13:25:27.926Z,0.90
2023-04-17T13:30:32.886Z,0.60
2023-04-17T13:35:36.562Z,0.88
2023-04-17T13:40:41.152Z,0.70
2023-04-17T13:45:44.784Z,0.80
2023-04-17T13:50:48.512Z,1.27
2023-04-17T13:55:52.994Z,1.00
2023-04-17T14:00:56.994Z,1.30
2023-04-17T14:06:03.184Z,0.90
2023-04-17T14:11:07.456Z,0.70
2023-04-17T14:16:11.919Z,0.60
2023-04-17T14:21:16.878Z,0.73
2023-04-17T14:26:20.527Z,0.80
2023-04-17T14:31:23.682Z,0.55
2023-04-17T14:36:27.933Z,1.15
2023-04-17T14:41:34.367Z,0.85
2023-04-17T14:51:41.633Z,0.80
2023-04-17T14:56:45.369Z,1.00
2023-04-17T15:01:48.955Z,0.80
2023-04-17T15:06:52.669Z,0.93
2023-04-17T15:11:57.119Z,0.90
2023-04-17T15:17:02.654Z,1.10
2023-04-17T15:22:07.246Z,1.15
2023-04-17T15:27:11.755Z,1.23
2023-04-17T15:32:15.906Z,1.45
2023-04-17T15:37:19.708Z,1.08
2023-04-17T15:42:23.665Z,1.17
2023-04-17T15:47:28.635Z,2.60
2023-04-17T15:52:32.463Z,0.90
2023-04-17T15:57:36.149Z,1.08
2023-04-17T16:02:39.964Z,1.27
2023-04-17T16:07:43.765Z,1.48
2023-04-17T16:12:47.620Z,1.27
2023-04-17T16:17:51.246Z,1.58
2023-04-17T16:22:56.369Z,1.95
2023-04-17T16:27:59.947Z,2.65
2023-04-17T16:33:04.352Z,2.30
2023-04-17T16:38:08.274Z,2.58
2023-04-17T16:43:11.508Z,2.70
2023-04-17T16:48:15.273Z,2.83
2023-04-17T16:53:19.659Z,2.80
2023-04-17T16:58:24.988Z,2.00
2023-04-17T17:03:28.863Z,2.20
2023-04-17T17:08:32.518Z,2.25
2023-04-17T17:13:36.867Z,1.67
2023-04-17T17:18:39.871Z,2.42
2023-04-17T17:23:43.404Z,1.95
2023-04-17T17:28:51.435Z,2.67
2023-04-17T17:33:56.115Z,2.58
2023-04-17T17:39:00.490Z,2.10
2023-04-17T17:44:03.761Z,2.72
2023-04-17T17:49:07.451Z,3.10
2023-04-17T17:54:11.321Z,2.70
2023-04-17T17:59:14.604Z,1.80
2023-04-17T18:04:18.929Z,1.90
2023-04-17T18:09:23.165Z,1.90
2023-04-17T18:14:27.333Z,2.30
2023-04-17T18:19:30.354Z,2.10
2023-04-17T18:24:33.844Z,2.55
2023-04-17T18:29:37.539Z,1.90
2023-04-17T18:34:40.619Z,2.22
2023-04-17T18:39:44.574Z,2.38
2023-04-17T18:44:48.196Z,3.28
2023-04-17T18:49:55.369Z,4.82
2023-04-17T19:00:01.864Z,4.10
2023-04-17T19:05:06.313Z,4.00
2023-04-17T19:10:10.333Z,3.53
2023-04-17T19:15:14.049Z,4.40
2023-04-17T19:20:18.085Z,4.03
2023-04-17T19:25:21.819Z,2.72
2023-04-17T19:30:25.066Z,3.17
2023-04-17T19:35:28.670Z,2.83
2023-04-17T19:40:32.109Z,1.95
2023-04-17T19:45:36.239Z,1.48
2023-04-17T19:50:39.507Z,1.35
2023-04-17T19:55:43.105Z,1.10
2023-04-17T20:00:47.388Z,1.35
2023-04-17T20:05:51.829Z,1.52
2023-04-17T20:10:55.052Z,1.70
2023-04-17T20:15:59.216Z,1.42
2023-04-17T20:21:02.986Z,3.75
2023-04-17T20:26:06.430Z,2.30
2023-04-17T20:31:09.821Z,2.25
2023-04-17T20:36:13.861Z,2.42
2023-04-17T20:41:17.531Z,1.88
2023-04-17T20:46:21.676Z,2.10
2023-04-17T20:51:26.856Z,1.85
2023-04-17T20:56:30.417Z,2.20
2023-04-17T21:01:33.971Z,1.90
2023-04-17T21:06:37.500Z,2.20
2023-04-17T21:11:41.443Z,2.08
2023-04-17T21:16:45.711Z,1.58
2023-04-17T21:21:49.403Z,1.67
2023-04-17T21:26:58.657Z,1.95
2023-04-17T21:32:03.304Z,1.42
2023-04-17T21:37:06.438Z,1.65
2023-04-17T21:42:10.435Z,1.90
2023-04-17T21:47:14.926Z,1.90
2023-04-17T21:52:19.148Z,2.15
2023-04-17T21:57:22.290Z,2.03
2023-04-17T22:02:26.612Z,1.95
2023-04-17T22:07:34.102Z,1.92
2023-04-17T22:12:41.536Z,1.80
2023-04-17T22:17:45.456Z,1.67
2023-04-17T22:22:48.787Z,1.55
2023-04-17T22:27:52.371Z,1.48
2023-04-17T22:32:57.758Z,1.15
2023-04-17T22:38:01.414Z,1.27
2023-04-17T22:43:04.558Z,1.30
2023-04-17T22:48:07.979Z,1.83
2023-04-17T22:53:11.881Z,2.53
2023-04-17T22:58:15.829Z,4.15
2023-04-17T23:03:19.354Z,14.15
2023-04-17T23:08:24.956Z,20.60
2023-04-17T23:13:29.226Z,27.35
2023-04-17T23:18:32.993Z,35.92
2023-04-17T23:23:36.512Z,45.58
2023-04-17T23:28:40.038Z,66.03
2023-04-17T23:33:44.080Z,73.75
2023-04-17T23:38:47.301Z,85.32
2023-04-17T23:43:51.730Z,81.10
2023-04-17T23:48:55.074Z,66.45
2023-04-17T23:54:00.137Z,46.38
2023-04-17T23:59:03.500Z,42.60
